sensor_id;sensor_type;location;lat;lon;timestamp;P1;durP1;ratioP1;P2;durP2;ratioP2
34673;SDS011;20879;55.668;37.858;2022-07-29T00:00:09;2.70;;;1.02;;
34673;SDS011;20879;55.668;37.858;2022-07-29T00:02:41;1.42;;;1.30;;
34673;SDS011;20879;55.668;37.858;2022-07-29T00:05:10;2.35;;;1.48;;
34673;SDS011;20879;55.668;37.858;2022-07-29T00:07:40;2.10;;;1.17;;
34673;SDS011;20879;55.668;37.858;2022-07-29T00:10:09;1.20;;;1.08;;
34673;SDS011;20879;55.668;37.858;2022-07-29T00:12:39;1.20;;;1.10;;
34673;SDS011;20879;55.668;37.858;2022-07-29T00:15:11;2.42;;;1.10;;
34673;SDS011;20879;55.668;37.858;2022-07-29T00:17:40;2.25;;;1.15;;
34673;SDS011;20879;55.668;37.858;2022-07-29T00:20:10;2.75;;;1.13;;
34673;SDS011;20879;55.668;37.858;2022-07-29T00:22:39;2.90;;;1.20;;
34673;SDS011;20879;55.668;37.858;2022-07-29T00:25:08;2.15;;;1.20;;
34673;SDS011;20879;55.668;37.858;2022-07-29T00:27:38;1.23;;;1.13;;
34673;SDS011;20879;55.668;37.858;2022-07-29T00:30:08;1.83;;;1.00;;
34673;SDS011;20879;55.668;37.858;2022-07-29T00:32:39;3.33;;;1.00;;
34673;SDS011;20879;55.668;37.858;2022-07-29T00:35:09;1.30;;;1.20;;
34673;SDS011;20879;55.668;37.858;2022-07-29T00:37:51;3.53;;;1.33;;
34673;SDS011;20879;55.668;37.858;2022-07-29T00:40:20;3.05;;;1.50;;
34673;SDS011;20879;55.668;37.858;2022-07-29T00:42:50;2.53;;;1.20;;
34673;SDS011;20879;55.668;37.858;2022-07-29T00:45:21;2.10;;;1.30;;
34673;SDS011;20879;55.668;37.858;2022-07-29T00:47:52;1.55;;;1.25;;
34673;SDS011;20879;55.668;37.858;2022-07-29T00:50:22;2.72;;;1.40;;
34673;SDS011;20879;55.668;37.858;2022-07-29T00:52:51;3.38;;;1.50;;
34673;SDS011;20879;55.668;37.858;2022-07-29T00:55:21;3.53;;;1.45;;
34673;SDS011;20879;55.668;37.858;2022-07-29T00:57:51;3.38;;;1.67;;
34673;SDS011;20879;55.668;37.858;2022-07-29T01:00:22;2.60;;;1.38;;
34673;SDS011;20879;55.668;37.858;2022-07-29T01:02:54;3.63;;;1.50;;
34673;SDS011;20879;55.668;37.858;2022-07-29T01:05:24;2.80;;;1.20;;
34673;SDS011;20879;55.668;37.858;2022-07-29T01:08:16;4.10;;;1.35;;
34673;SDS011;20879;55.668;37.858;2022-07-29T01:10:46;2.78;;;1.60;;
34673;SDS011;20879;55.668;37.858;2022-07-29T01:13:16;1.80;;;1.30;;
34673;SDS011;20879;55.668;37.858;2022-07-29T01:15:47;2.72;;;1.13;;
34673;SDS011;20879;55.668;37.858;2022-07-29T01:18:28;2.47;;;1.33;;
34673;SDS011;20879;55.668;37.858;2022-07-29T01:21:15;2.17;;;1.27;;
34673;SDS011;20879;55.668;37.858;2022-07-29T01:24:01;3.55;;;1.35;;
34673;SDS011;20879;55.668;37.858;2022-07-29T01:26:47;4.45;;;1.30;;
34673;SDS011;20879;55.668;37.858;2022-07-29T01:29:26;1.83;;;1.48;;
34673;SDS011;20879;55.668;37.858;2022-07-29T01:32:07;2.03;;;1.40;;
34673;SDS011;20879;55.668;37.858;2022-07-29T01:34:55;1.55;;;1.30;;
34673;SDS011;20879;55.668;37.858;2022-07-29T01:37:32;4.93;;;1.20;;
34673;SDS011;20879;55.668;37.858;2022-07-29T01:40:08;3.72;;;1.30;;
34673;SDS011;20879;55.668;37.858;2022-07-29T01:42:48;5.22;;;1.65;;
34673;SDS011;20879;55.668;37.858;2022-07-29T01:45:23;2.95;;;1.50;;
34673;SDS011;20879;55.668;37.858;2022-07-29T01:48:00;2.92;;;1.30;;
34673;SDS011;20879;55.668;37.858;2022-07-29T01:50:34;2.90;;;1.38;;
34673;SDS011;20879;55.668;37.858;2022-07-29T01:53:09;3.55;;;1.35;;
34673;SDS011;20879;55.668;37.858;2022-07-29T01:55:39;3.08;;;1.40;;
34673;SDS011;20879;55.668;37.858;2022-07-29T01:58:11;5.57;;;2.05;;
34673;SDS011;20879;55.668;37.858;2022-07-29T02:00:47;1.17;;;1.00;;
34673;SDS011;20879;55.668;37.858;2022-07-29T02:03:20;1.75;;;1.33;;
34673;SDS011;20879;55.668;37.858;2022-07-29T02:05:52;4.47;;;1.40;;
34673;SDS011;20879;55.668;37.858;2022-07-29T02:08:25;4.40;;;1.70;;
34673;SDS011;20879;55.668;37.858;2022-07-29T02:10:56;2.40;;;1.45;;
34673;SDS011;20879;55.668;37.858;2022-07-29T02:13:28;2.97;;;1.67;;
34673;SDS011;20879;55.668;37.858;2022-07-29T02:16:00;2.22;;;1.45;;
34673;SDS011;20879;55.668;37.858;2022-07-29T02:18:32;4.78;;;1.50;;
34673;SDS011;20879;55.668;37.858;2022-07-29T02:21:04;4.10;;;1.38;;
34673;SDS011;20879;55.668;37.858;2022-07-29T02:23:40;4.05;;;1.65;;
34673;SDS011;20879;55.668;37.858;2022-07-29T02:26:18;2.45;;;1.50;;
34673;SDS011;20879;55.668;37.858;2022-07-29T02:28:51;2.03;;;1.50;;
34673;SDS011;20879;55.668;37.858;2022-07-29T02:31:29;4.82;;;1.50;;
34673;SDS011;20879;55.668;37.858;2022-07-29T02:34:03;2.40;;;1.60;;
34673;SDS011;20879;55.668;37.858;2022-07-29T02:36:36;2.28;;;1.50;;
34673;SDS011;20879;55.668;37.858;2022-07-29T02:39:08;6.90;;;1.70;;
34673;SDS011;20879;55.668;37.858;2022-07-29T02:41:41;2.40;;;1.40;;
34673;SDS011;20879;55.668;37.858;2022-07-29T02:44:14;4.32;;;1.63;;
34673;SDS011;20879;55.668;37.858;2022-07-29T02:46:49;4.80;;;1.83;;
34673;SDS011;20879;55.668;37.858;2022-07-29T02:49:25;5.75;;;1.40;;
34673;SDS011;20879;55.668;37.858;2022-07-29T02:52:02;2.72;;;1.40;;
34673;SDS011;20879;55.668;37.858;2022-07-29T02:54:35;3.67;;;1.58;;
34673;SDS011;20879;55.668;37.858;2022-07-29T02:57:11;2.17;;;1.60;;
34673;SDS011;20879;55.668;37.858;2022-07-29T02:59:48;3.53;;;1.70;;
34673;SDS011;20879;55.668;37.858;2022-07-29T03:02:23;7.47;;;1.70;;
34673;SDS011;20879;55.668;37.858;2022-07-29T03:04:57;4.60;;;1.50;;
34673;SDS011;20879;55.668;37.858;2022-07-29T03:09:58;4.57;;;1.50;;
34673;SDS011;20879;55.668;37.858;2022-07-29T03:12:29;6.50;;;1.75;;
34673;SDS011;20879;55.668;37.858;2022-07-29T03:14:59;3.58;;;1.63;;
34673;SDS011;20879;55.668;37.858;2022-07-29T03:17:32;4.47;;;1.42;;
34673;SDS011;20879;55.668;37.858;2022-07-29T03:20:03;5.85;;;1.70;;
34673;SDS011;20879;55.668;37.858;2022-07-29T03:22:33;3.08;;;1.42;;
34673;SDS011;20879;55.668;37.858;2022-07-29T03:25:10;9.40;;;2.00;;
34673;SDS011;20879;55.668;37.858;2022-07-29T03:27:39;5.00;;;1.85;;
34673;SDS011;20879;55.668;37.858;2022-07-29T03:30:11;1.90;;;1.48;;
34673;SDS011;20879;55.668;37.858;2022-07-29T03:32:50;4.35;;;1.60;;
34673;SDS011;20879;55.668;37.858;2022-07-29T03:35:24;3.63;;;1.60;;
34673;SDS011;20879;55.668;37.858;2022-07-29T03:37:53;5.32;;;1.70;;
34673;SDS011;20879;55.668;37.858;2022-07-29T03:40:24;4.93;;;1.45;;
34673;SDS011;20879;55.668;37.858;2022-07-29T03:42:59;1.55;;;1.42;;
34673;SDS011;20879;55.668;37.858;2022-07-29T03:48:05;3.33;;;1.50;;
34673;SDS011;20879;55.668;37.858;2022-07-29T03:50:37;2.50;;;1.20;;
34673;SDS011;20879;55.668;37.858;2022-07-29T03:53:06;3.40;;;1.60;;
34673;SDS011;20879;55.668;37.858;2022-07-29T03:55:37;4.60;;;1.50;;
34673;SDS011;20879;55.668;37.858;2022-07-29T03:58:11;3.00;;;1.42;;
34673;SDS011;20879;55.668;37.858;2022-07-29T04:00:42;5.15;;;1.88;;
34673;SDS011;20879;55.668;37.858;2022-07-29T04:03:13;4.47;;;1.50;;
34673;SDS011;20879;55.668;37.858;2022-07-29T04:05:43;2.83;;;1.48;;
34673;SDS011;20879;55.668;37.858;2022-07-29T04:08:12;3.42;;;1.20;;
34673;SDS011;20879;55.668;37.858;2022-07-29T04:10:41;2.38;;;1.38;;
34673;SDS011;20879;55.668;37.858;2022-07-29T04:13:11;4.22;;;1.25;;
34673;SDS011;20879;55.668;37.858;2022-07-29T04:15:40;4.82;;;1.52;;
34673;SDS011;20879;55.668;37.858;2022-07-29T04:18:09;2.53;;;1.40;;
34673;SDS011;20879;55.668;37.858;2022-07-29T04:20:41;6.57;;;1.58;;
34673;SDS011;20879;55.668;37.858;2022-07-29T04:23:10;2.67;;;1.45;;
34673;SDS011;20879;55.668;37.858;2022-07-29T04:25:39;3.72;;;1.25;;
34673;SDS011;20879;55.668;37.858;2022-07-29T04:28:09;2.78;;;1.20;;
34673;SDS011;20879;55.668;37.858;2022-07-29T04:30:39;2.70;;;1.15;;
34673;SDS011;20879;55.668;37.858;2022-07-29T04:33:08;3.45;;;1.20;;
34673;SDS011;20879;55.668;37.858;2022-07-29T04:35:40;2.63;;;1.30;;
34673;SDS011;20879;55.668;37.858;2022-07-29T04:38:18;4.78;;;1.30;;
34673;SDS011;20879;55.668;37.858;2022-07-29T04:40:48;5.03;;;1.27;;
34673;SDS011;20879;55.668;37.858;2022-07-29T04:43:17;2.20;;;1.08;;
34673;SDS011;20879;55.668;37.858;2022-07-29T04:45:49;3.40;;;1.30;;
34673;SDS011;20879;55.668;37.858;2022-07-29T04:48:18;2.17;;;1.00;;
34673;SDS011;20879;55.668;37.858;2022-07-29T04:50:56;5.28;;;1.35;;
34673;SDS011;20879;55.668;37.858;2022-07-29T04:53:26;2.80;;;1.17;;
34673;SDS011;20879;55.668;37.858;2022-07-29T04:55:55;3.53;;;1.30;;
34673;SDS011;20879;55.668;37.858;2022-07-29T04:58:24;3.50;;;1.30;;
34673;SDS011;20879;55.668;37.858;2022-07-29T05:00:54;1.67;;;1.20;;
34673;SDS011;20879;55.668;37.858;2022-07-29T05:03:23;3.40;;;1.30;;
34673;SDS011;20879;55.668;37.858;2022-07-29T05:05:52;2.35;;;1.17;;
34673;SDS011;20879;55.668;37.858;2022-07-29T05:08:24;3.67;;;1.10;;
34673;SDS011;20879;55.668;37.858;2022-07-29T05:10:53;2.35;;;1.10;;
34673;SDS011;20879;55.668;37.858;2022-07-29T05:13:22;2.47;;;1.35;;
34673;SDS011;20879;55.668;37.858;2022-07-29T05:15:52;4.22;;;1.20;;
34673;SDS011;20879;55.668;37.858;2022-07-29T05:18:21;3.45;;;1.30;;
34673;SDS011;20879;55.668;37.858;2022-07-29T05:20:52;2.95;;;1.27;;
34673;SDS011;20879;55.668;37.858;2022-07-29T05:23:21;3.08;;;1.20;;
34673;SDS011;20879;55.668;37.858;2022-07-29T05:25:52;6.63;;;1.10;;
34673;SDS011;20879;55.668;37.858;2022-07-29T05:28:21;3.55;;;1.23;;
34673;SDS011;20879;55.668;37.858;2022-07-29T05:30:51;2.70;;;1.20;;
34673;SDS011;20879;55.668;37.858;2022-07-29T05:33:20;5.20;;;1.30;;
34673;SDS011;20879;55.668;37.858;2022-07-29T05:36:03;2.90;;;1.50;;
34673;SDS011;20879;55.668;37.858;2022-07-29T05:38:36;2.58;;;1.10;;
34673;SDS011;20879;55.668;37.858;2022-07-29T05:41:05;2.95;;;1.00;;
34673;SDS011;20879;55.668;37.858;2022-07-29T05:43:34;4.43;;;1.25;;
34673;SDS011;20879;55.668;37.858;2022-07-29T05:46:04;3.97;;;1.00;;
34673;SDS011;20879;55.668;37.858;2022-07-29T05:48:33;2.55;;;1.30;;
34673;SDS011;20879;55.668;37.858;2022-07-29T05:51:02;3.70;;;1.20;;
34673;SDS011;20879;55.668;37.858;2022-07-29T05:53:33;1.85;;;1.17;;
34673;SDS011;20879;55.668;37.858;2022-07-29T05:56:05;3.08;;;1.00;;
34673;SDS011;20879;55.668;37.858;2022-07-29T05:58:35;3.35;;;1.33;;
34673;SDS011;20879;55.668;37.858;2022-07-29T06:01:05;4.07;;;1.27;;
34673;SDS011;20879;55.668;37.858;2022-07-29T06:03:34;2.85;;;1.20;;
34673;SDS011;20879;55.668;37.858;2022-07-29T06:06:04;4.18;;;1.15;;
34673;SDS011;20879;55.668;37.858;2022-07-29T06:08:35;5.00;;;1.40;;
34673;SDS011;20879;55.668;37.858;2022-07-29T06:11:06;2.30;;;1.13;;
34673;SDS011;20879;55.668;37.858;2022-07-29T06:16:05;6.55;;;1.20;;
34673;SDS011;20879;55.668;37.858;2022-07-29T06:18:34;3.45;;;1.00;;
34673;SDS011;20879;55.668;37.858;2022-07-29T06:21:07;2.53;;;0.85;;
34673;SDS011;20879;55.668;37.858;2022-07-29T06:23:38;3.42;;;1.08;;
34673;SDS011;20879;55.668;37.858;2022-07-29T06:26:10;2.40;;;1.20;;
34673;SDS011;20879;55.668;37.858;2022-07-29T06:28:39;3.70;;;1.10;;
34673;SDS011;20879;55.668;37.858;2022-07-29T06:31:09;4.15;;;1.50;;
34673;SDS011;20879;55.668;37.858;2022-07-29T06:33:38;4.95;;;1.30;;
34673;SDS011;20879;55.668;37.858;2022-07-29T06:36:08;3.80;;;1.08;;
34673;SDS011;20879;55.668;37.858;2022-07-29T06:38:38;3.40;;;1.33;;
34673;SDS011;20879;55.668;37.858;2022-07-29T06:41:18;2.75;;;1.02;;
34673;SDS011;20879;55.668;37.858;2022-07-29T06:43:49;4.38;;;1.15;;
34673;SDS011;20879;55.668;37.858;2022-07-29T06:46:22;2.58;;;1.23;;
34673;SDS011;20879;55.668;37.858;2022-07-29T06:48:52;4.38;;;0.98;;
34673;SDS011;20879;55.668;37.858;2022-07-29T06:51:21;3.55;;;0.90;;
34673;SDS011;20879;55.668;37.858;2022-07-29T06:53:50;3.80;;;1.30;;
34673;SDS011;20879;55.668;37.858;2022-07-29T06:56:31;3.00;;;1.13;;
34673;SDS011;20879;55.668;37.858;2022-07-29T06:59:06;2.00;;;1.10;;
34673;SDS011;20879;55.668;37.858;2022-07-29T07:01:39;3.55;;;1.13;;
34673;SDS011;20879;55.668;37.858;2022-07-29T07:04:09;2.87;;;1.10;;
34673;SDS011;20879;55.668;37.858;2022-07-29T07:06:41;6.38;;;1.25;;
34673;SDS011;20879;55.668;37.858;2022-07-29T07:09:10;2.72;;;1.02;;
34673;SDS011;20879;55.668;37.858;2022-07-29T07:11:41;2.92;;;1.30;;
34673;SDS011;20879;55.668;37.858;2022-07-29T07:14:15;4.88;;;1.52;;
34673;SDS011;20879;55.668;37.858;2022-07-29T07:16:45;4.30;;;1.45;;
34673;SDS011;20879;55.668;37.858;2022-07-29T07:19:18;2.17;;;1.08;;
34673;SDS011;20879;55.668;37.858;2022-07-29T07:21:47;2.72;;;1.42;;
34673;SDS011;20879;55.668;37.858;2022-07-29T07:24:17;3.85;;;1.20;;
34673;SDS011;20879;55.668;37.858;2022-07-29T07:26:48;3.10;;;1.30;;
34673;SDS011;20879;55.668;37.858;2022-07-29T07:29:17;3.40;;;1.30;;
34673;SDS011;20879;55.668;37.858;2022-07-29T07:31:46;3.10;;;1.27;;
34673;SDS011;20879;55.668;37.858;2022-07-29T07:34:16;5.00;;;1.50;;
34673;SDS011;20879;55.668;37.858;2022-07-29T07:36:55;3.70;;;0.95;;
34673;SDS011;20879;55.668;37.858;2022-07-29T07:39:24;4.05;;;1.40;;
34673;SDS011;20879;55.668;37.858;2022-07-29T07:41:56;4.13;;;1.35;;
34673;SDS011;20879;55.668;37.858;2022-07-29T07:44:25;3.47;;;1.05;;
34673;SDS011;20879;55.668;37.858;2022-07-29T07:46:55;3.88;;;1.20;;
34673;SDS011;20879;55.668;37.858;2022-07-29T07:49:29;2.53;;;1.00;;
34673;SDS011;20879;55.668;37.858;2022-07-29T07:51:59;3.63;;;1.20;;
34673;SDS011;20879;55.668;37.858;2022-07-29T07:54:28;2.67;;;1.23;;
34673;SDS011;20879;55.668;37.858;2022-07-29T07:56:59;2.95;;;1.30;;
34673;SDS011;20879;55.668;37.858;2022-07-29T07:59:29;3.78;;;0.98;;
34673;SDS011;20879;55.668;37.858;2022-07-29T08:02:00;2.33;;;1.10;;
34673;SDS011;20879;55.668;37.858;2022-07-29T08:04:29;2.40;;;0.90;;
34673;SDS011;20879;55.668;37.858;2022-07-29T08:06:59;4.15;;;1.38;;
34673;SDS011;20879;55.668;37.858;2022-07-29T08:09:28;2.95;;;1.00;;
34673;SDS011;20879;55.668;37.858;2022-07-29T08:12:00;1.23;;;0.80;;
34673;SDS011;20879;55.668;37.858;2022-07-29T08:14:32;2.20;;;0.93;;
34673;SDS011;20879;55.668;37.858;2022-07-29T08:17:01;2.20;;;0.90;;
34673;SDS011;20879;55.668;37.858;2022-07-29T08:19:31;4.57;;;1.10;;
34673;SDS011;20879;55.668;37.858;2022-07-29T08:22:00;5.28;;;1.20;;
34673;SDS011;20879;55.668;37.858;2022-07-29T08:24:29;2.72;;;1.15;;
34673;SDS011;20879;55.668;37.858;2022-07-29T08:27:20;2.05;;;0.90;;
34673;SDS011;20879;55.668;37.858;2022-07-29T08:30:08;3.65;;;0.80;;
34673;SDS011;20879;55.668;37.858;2022-07-29T08:32:38;1.42;;;0.85;;
34673;SDS011;20879;55.668;37.858;2022-07-29T08:35:23;2.90;;;1.00;;
34673;SDS011;20879;55.668;37.858;2022-07-29T08:37:59;1.58;;;0.77;;
34673;SDS011;20879;55.668;37.858;2022-07-29T08:40:29;4.00;;;1.00;;
34673;SDS011;20879;55.668;37.858;2022-07-29T08:43:03;3.53;;;1.00;;
34673;SDS011;20879;55.668;37.858;2022-07-29T08:45:37;3.80;;;0.90;;
34673;SDS011;20879;55.668;37.858;2022-07-29T08:48:14;4.93;;;1.00;;
34673;SDS011;20879;55.668;37.858;2022-07-29T08:50:45;1.02;;;0.40;;
34673;SDS011;20879;55.668;37.858;2022-07-29T08:53:17;1.05;;;0.57;;
34673;SDS011;20879;55.668;37.858;2022-07-29T08:55:48;2.08;;;0.73;;
34673;SDS011;20879;55.668;37.858;2022-07-29T08:58:20;3.08;;;0.80;;
34673;SDS011;20879;55.668;37.858;2022-07-29T09:00:52;1.10;;;0.75;;
34673;SDS011;20879;55.668;37.858;2022-07-29T09:03:25;3.42;;;1.02;;
34673;SDS011;20879;55.668;37.858;2022-07-29T09:05:59;2.15;;;0.95;;
34673;SDS011;20879;55.668;37.858;2022-07-29T09:08:28;2.00;;;0.80;;
34673;SDS011;20879;55.668;37.858;2022-07-29T09:13:33;2.88;;;0.90;;
34673;SDS011;20879;55.668;37.858;2022-07-29T09:16:03;1.65;;;0.70;;
34673;SDS011;20879;55.668;37.858;2022-07-29T09:18:36;2.47;;;0.80;;
34673;SDS011;20879;55.668;37.858;2022-07-29T09:21:08;1.92;;;0.63;;
34673;SDS011;20879;55.668;37.858;2022-07-29T09:24:00;1.48;;;0.90;;
34673;SDS011;20879;55.668;37.858;2022-07-29T09:26:33;3.67;;;0.82;;
34673;SDS011;20879;55.668;37.858;2022-07-29T09:29:10;1.63;;;0.80;;
34673;SDS011;20879;55.668;37.858;2022-07-29T09:31:42;3.55;;;1.20;;
34673;SDS011;20879;55.668;37.858;2022-07-29T09:36:42;5.63;;;1.00;;
34673;SDS011;20879;55.668;37.858;2022-07-29T09:39:13;1.48;;;0.70;;
34673;SDS011;20879;55.668;37.858;2022-07-29T09:41:48;2.85;;;0.82;;
34673;SDS011;20879;55.668;37.858;2022-07-29T09:44:22;2.40;;;1.00;;
34673;SDS011;20879;55.668;37.858;2022-07-29T09:46:55;1.50;;;0.82;;
34673;SDS011;20879;55.668;37.858;2022-07-29T09:49:32;2.05;;;0.93;;
34673;SDS011;20879;55.668;37.858;2022-07-29T09:52:05;1.92;;;0.98;;
34673;SDS011;20879;55.668;37.858;2022-07-29T09:54:37;2.60;;;1.48;;
34673;SDS011;20879;55.668;37.858;2022-07-29T09:57:07;1.58;;;0.85;;
34673;SDS011;20879;55.668;37.858;2022-07-29T09:59:40;1.33;;;0.98;;
34673;SDS011;20879;55.668;37.858;2022-07-29T10:02:28;3.03;;;0.73;;
34673;SDS011;20879;55.668;37.858;2022-07-29T10:05:01;3.80;;;1.20;;
34673;SDS011;20879;55.668;37.858;2022-07-29T10:07:43;2.40;;;0.93;;
34673;SDS011;20879;55.668;37.858;2022-07-29T10:10:23;2.70;;;1.20;;
34673;SDS011;20879;55.668;37.858;2022-07-29T10:12:53;4.80;;;1.15;;
34673;SDS011;20879;55.668;37.858;2022-07-29T10:15:35;4.82;;;2.03;;
34673;SDS011;20879;55.668;37.858;2022-07-29T10:18:07;2.17;;;0.85;;
34673;SDS011;20879;55.668;37.858;2022-07-29T10:20:37;4.57;;;1.00;;
34673;SDS011;20879;55.668;37.858;2022-07-29T10:23:08;3.00;;;1.00;;
34673;SDS011;20879;55.668;37.858;2022-07-29T10:25:37;2.47;;;1.17;;
34673;SDS011;20879;55.668;37.858;2022-07-29T10:28:12;1.20;;;0.82;;
34673;SDS011;20879;55.668;37.858;2022-07-29T10:30:44;2.33;;;0.85;;
34673;SDS011;20879;55.668;37.858;2022-07-29T10:33:21;3.30;;;0.88;;
34673;SDS011;20879;55.668;37.858;2022-07-29T10:36:14;2.15;;;0.85;;
34673;SDS011;20879;55.668;37.858;2022-07-29T10:38:54;1.48;;;0.80;;
34673;SDS011;20879;55.668;37.858;2022-07-29T10:44:30;1.75;;;1.17;;
34673;SDS011;20879;55.668;37.858;2022-07-29T10:47:05;1.58;;;0.90;;
34673;SDS011;20879;55.668;37.858;2022-07-29T10:49:35;3.08;;;1.50;;
34673;SDS011;20879;55.668;37.858;2022-07-29T10:52:07;6.45;;;1.35;;
34673;SDS011;20879;55.668;37.858;2022-07-29T10:54:38;6.13;;;1.30;;
34673;SDS011;20879;55.668;37.858;2022-07-29T10:57:18;5.10;;;1.52;;
34673;SDS011;20879;55.668;37.858;2022-07-29T11:02:58;3.83;;;1.42;;
34673;SDS011;20879;55.668;37.858;2022-07-29T11:05:51;3.55;;;1.10;;
34673;SDS011;20879;55.668;37.858;2022-07-29T11:08:25;5.25;;;1.58;;
34673;SDS011;20879;55.668;37.858;2022-07-29T11:14:17;3.15;;;1.15;;
34673;SDS011;20879;55.668;37.858;2022-07-29T11:16:59;1.50;;;0.90;;
34673;SDS011;20879;55.668;37.858;2022-07-29T11:19:36;7.60;;;1.23;;
34673;SDS011;20879;55.668;37.858;2022-07-29T11:25:13;3.58;;;1.08;;
34673;SDS011;20879;55.668;37.858;2022-07-29T11:27:43;1.67;;;0.70;;
34673;SDS011;20879;55.668;37.858;2022-07-29T11:30:13;1.47;;;0.80;;
34673;SDS011;20879;55.668;37.858;2022-07-29T11:32:43;2.30;;;0.50;;
34673;SDS011;20879;55.668;37.858;2022-07-29T11:35:17;2.25;;;0.93;;
34673;SDS011;20879;55.668;37.858;2022-07-29T11:43:53;4.40;;;1.20;;
34673;SDS011;20879;55.668;37.858;2022-07-29T11:49:35;2.60;;;1.20;;
34673;SDS011;20879;55.668;37.858;2022-07-29T11:52:12;2.45;;;0.95;;
34673;SDS011;20879;55.668;37.858;2022-07-29T11:57:26;3.22;;;0.95;;
34673;SDS011;20879;55.668;37.858;2022-07-29T12:00:04;0.77;;;0.50;;
34673;SDS011;20879;55.668;37.858;2022-07-29T12:02:40;0.73;;;0.63;;
34673;SDS011;20879;55.668;37.858;2022-07-29T12:05:40;2.63;;;1.33;;
34673;SDS011;20879;55.668;37.858;2022-07-29T12:08:20;2.25;;;1.95;;
34673;SDS011;20879;55.668;37.858;2022-07-29T12:10:52;2.92;;;1.27;;
34673;SDS011;20879;55.668;37.858;2022-07-29T12:13:23;2.10;;;0.98;;
34673;SDS011;20879;55.668;37.858;2022-07-29T12:16:04;1.60;;;1.17;;
34673;SDS011;20879;55.668;37.858;2022-07-29T12:18:33;2.92;;;1.50;;
34673;SDS011;20879;55.668;37.858;2022-07-29T12:21:03;1.90;;;0.90;;
34673;SDS011;20879;55.668;37.858;2022-07-29T12:23:34;1.65;;;0.80;;
34673;SDS011;20879;55.668;37.858;2022-07-29T12:26:03;1.67;;;0.88;;
34673;SDS011;20879;55.668;37.858;2022-07-29T12:28:37;0.88;;;0.70;;
34673;SDS011;20879;55.668;37.858;2022-07-29T12:31:12;2.38;;;0.90;;
34673;SDS011;20879;55.668;37.858;2022-07-29T12:34:02;1.55;;;0.90;;
34673;SDS011;20879;55.668;37.858;2022-07-29T12:36:32;3.55;;;0.90;;
34673;SDS011;20879;55.668;37.858;2022-07-29T12:39:03;2.97;;;1.10;;
34673;SDS011;20879;55.668;37.858;2022-07-29T12:44:01;3.03;;;0.90;;
34673;SDS011;20879;55.668;37.858;2022-07-29T12:46:31;2.10;;;0.85;;
34673;SDS011;20879;55.668;37.858;2022-07-29T12:49:00;3.28;;;0.90;;
34673;SDS011;20879;55.668;37.858;2022-07-29T12:57:46;2.50;;;0.85;;
34673;SDS011;20879;55.668;37.858;2022-07-29T13:02:54;3.35;;;0.77;;
34673;SDS011;20879;55.668;37.858;2022-07-29T13:05:31;3.28;;;0.80;;
34673;SDS011;20879;55.668;37.858;2022-07-29T13:08:16;0.68;;;0.68;;
34673;SDS011;20879;55.668;37.858;2022-07-29T13:10:49;1.15;;;1.00;;
34673;SDS011;20879;55.668;37.858;2022-07-29T13:13:23;2.30;;;1.00;;
34673;SDS011;20879;55.668;37.858;2022-07-29T13:16:04;2.35;;;1.20;;
34673;SDS011;20879;55.668;37.858;2022-07-29T13:18:37;3.83;;;0.95;;
34673;SDS011;20879;55.668;37.858;2022-07-29T13:21:10;2.17;;;1.27;;
34673;SDS011;20879;55.668;37.858;2022-07-29T13:23:42;1.63;;;0.95;;
34673;SDS011;20879;55.668;37.858;2022-07-29T13:26:11;2.92;;;1.20;;
34673;SDS011;20879;55.668;37.858;2022-07-29T13:28:44;3.22;;;1.35;;
34673;SDS011;20879;55.668;37.858;2022-07-29T13:31:13;3.80;;;0.90;;
34673;SDS011;20879;55.668;37.858;2022-07-29T13:33:43;3.42;;;0.88;;
34673;SDS011;20879;55.668;37.858;2022-07-29T13:36:12;2.88;;;0.80;;
34673;SDS011;20879;55.668;37.858;2022-07-29T13:38:41;2.97;;;0.75;;
34673;SDS011;20879;55.668;37.858;2022-07-29T13:41:10;2.00;;;1.02;;
34673;SDS011;20879;55.668;37.858;2022-07-29T13:43:40;2.45;;;0.80;;
34673;SDS011;20879;55.668;37.858;2022-07-29T13:46:11;2.08;;;0.80;;
34673;SDS011;20879;55.668;37.858;2022-07-29T13:51:09;3.50;;;1.05;;
34673;SDS011;20879;55.668;37.858;2022-07-29T13:53:40;1.50;;;0.90;;
34673;SDS011;20879;55.668;37.858;2022-07-29T13:56:09;3.15;;;1.10;;
34673;SDS011;20879;55.668;37.858;2022-07-29T13:58:39;2.17;;;1.00;;
34673;SDS011;20879;55.668;37.858;2022-07-29T14:01:08;3.25;;;1.20;;
34673;SDS011;20879;55.668;37.858;2022-07-29T14:03:39;4.68;;;1.08;;
34673;SDS011;20879;55.668;37.858;2022-07-29T14:06:11;4.22;;;1.38;;
34673;SDS011;20879;55.668;37.858;2022-07-29T14:08:44;1.42;;;0.90;;
34673;SDS011;20879;55.668;37.858;2022-07-29T14:11:13;1.65;;;0.85;;
34673;SDS011;20879;55.668;37.858;2022-07-29T14:13:43;2.78;;;1.00;;
34673;SDS011;20879;55.668;37.858;2022-07-29T14:16:12;3.92;;;1.00;;
34673;SDS011;20879;55.668;37.858;2022-07-29T14:18:44;2.85;;;1.23;;
34673;SDS011;20879;55.668;37.858;2022-07-29T14:23:43;3.75;;;1.00;;
34673;SDS011;20879;55.668;37.858;2022-07-29T14:26:12;2.63;;;1.17;;
34673;SDS011;20879;55.668;37.858;2022-07-29T14:28:50;2.63;;;1.00;;
34673;SDS011;20879;55.668;37.858;2022-07-29T14:31:19;1.98;;;1.23;;
34673;SDS011;20879;55.668;37.858;2022-07-29T14:33:50;3.13;;;1.08;;
34673;SDS011;20879;55.668;37.858;2022-07-29T14:36:20;2.20;;;0.98;;
34673;SDS011;20879;55.668;37.858;2022-07-29T14:38:49;3.97;;;1.48;;
34673;SDS011;20879;55.668;37.858;2022-07-29T14:41:19;5.65;;;3.53;;
34673;SDS011;20879;55.668;37.858;2022-07-29T14:43:48;5.22;;;3.70;;
34673;SDS011;20879;55.668;37.858;2022-07-29T14:46:19;7.32;;;3.55;;
34673;SDS011;20879;55.668;37.858;2022-07-29T14:48:50;9.35;;;4.97;;
34673;SDS011;20879;55.668;37.858;2022-07-29T14:51:20;7.13;;;1.80;;
34673;SDS011;20879;55.668;37.858;2022-07-29T14:53:58;4.18;;;2.95;;
34673;SDS011;20879;55.668;37.858;2022-07-29T14:56:27;11.85;;;6.95;;
34673;SDS011;20879;55.668;37.858;2022-07-29T14:59:04;5.65;;;2.20;;
34673;SDS011;20879;55.668;37.858;2022-07-29T15:01:33;12.93;;;4.82;;
34673;SDS011;20879;55.668;37.858;2022-07-29T15:04:05;7.63;;;5.22;;
34673;SDS011;20879;55.668;37.858;2022-07-29T15:09:04;5.53;;;2.50;;
34673;SDS011;20879;55.668;37.858;2022-07-29T15:11:33;4.60;;;2.72;;
34673;SDS011;20879;55.668;37.858;2022-07-29T15:14:04;7.07;;;1.63;;
34673;SDS011;20879;55.668;37.858;2022-07-29T15:16:35;4.25;;;2.20;;
34673;SDS011;20879;55.668;37.858;2022-07-29T15:19:09;8.25;;;4.25;;
34673;SDS011;20879;55.668;37.858;2022-07-29T15:21:39;9.20;;;6.20;;
34673;SDS011;20879;55.668;37.858;2022-07-29T15:24:15;10.15;;;7.03;;
34673;SDS011;20879;55.668;37.858;2022-07-29T15:26:44;10.68;;;7.18;;
34673;SDS011;20879;55.668;37.858;2022-07-29T15:29:14;9.73;;;4.80;;
34673;SDS011;20879;55.668;37.858;2022-07-29T15:31:43;6.65;;;3.63;;
34673;SDS011;20879;55.668;37.858;2022-07-29T15:34:15;8.38;;;4.28;;
34673;SDS011;20879;55.668;37.858;2022-07-29T15:36:46;5.43;;;4.15;;
34673;SDS011;20879;55.668;37.858;2022-07-29T15:39:18;8.48;;;2.70;;
34673;SDS011;20879;55.668;37.858;2022-07-29T15:41:48;7.40;;;2.50;;
34673;SDS011;20879;55.668;37.858;2022-07-29T15:44:18;5.70;;;2.20;;
34673;SDS011;20879;55.668;37.858;2022-07-29T15:46:48;6.47;;;1.92;;
34673;SDS011;20879;55.668;37.858;2022-07-29T15:49:34;7.03;;;2.00;;
34673;SDS011;20879;55.668;37.858;2022-07-29T15:52:15;6.97;;;3.10;;
34673;SDS011;20879;55.668;37.858;2022-07-29T15:54:52;3.20;;;2.10;;
34673;SDS011;20879;55.668;37.858;2022-07-29T15:57:22;4.32;;;1.95;;
34673;SDS011;20879;55.668;37.858;2022-07-29T15:59:52;6.07;;;4.22;;